Airfield :
LOGIN :

Register | Disclaimer

   EN    FR    IT 

 










Legend :    VFR   Marginal VFR   IFR   Intensive IFR   Very Intensive IFR
Visi :
Ceiling :
>= 8 km
>= 3000ft
5 to 8 km
1000 to 3000 ft
1500m to 5 km
500 to 1000 ft
800 to 1500m
200 to 500 ft
< 800m
< 200 ft
Symbols :   Thunderstorms  Fog  Heavy snow  Heavy precipitations  Wind > 20 kt
SIGMETs :     Misc.  Thunderstorms  Icing  Turbulence  Mountain Waves  Volcanic Ashes







- Airport Elevation : 645 ft
- IATA code : DLE
- Download approach charts


LFGJ - Dole Tavaux

CURRENT METAR :
  • 162200Z AUTO 24003KT 9999 OVC043 01/M00 Q1022

EXPIRED METARs :
  • 162130Z AUTO 27004KT 9999 BKN041 02/01 Q1022
  • 162100Z AUTO 27003KT 9999 BKN038 01/00 Q1022
  • 162030Z AUTO 30005KT 9999 FEW039 02/01 Q1021
  • 162000Z AUTO 31005KT CAVOK 03/01 Q1021
  • 161930Z AUTO 28004KT 9999 FEW037 BKN058 OVC074 03/02 Q1021

TAF TAF LFGJ
Valid from the 16 at 15:00 until the 17 at 00:00 UTC


161400Z 1615/1624 30005KT 9999 BKN020 BKN040
TEMPO 1615/1624 4000 -SHSNRA BKN013
PROB30
TEMPO 1615/1624 2500 SHSN BKN008
No reported NOTAMs for that airfield.



MET'MAP, your aeronautical weather chart ! - Copyright ORBIFLY December 2007 - Disclaimer

ORBIFLY MET'MAP TEAM :

Programming & Development : Alexandra Zaïnal
Concept & Development : Baudouin d'Aumeries
Co-Development & Prog : Marc-Olivier Méhu
Technical & hardware support : Manuel Goepfert

Contact : metmap@orbifly.com




SOURCES & CREDITS :

   NOAA